createdAt,value
2023-02-07T00:00:54.688Z,4.00
2023-02-07T00:03:21.657Z,3.90
2023-02-07T00:05:48.706Z,3.90
2023-02-07T00:08:16.222Z,3.80
2023-02-07T00:10:43.061Z,3.80
2023-02-07T00:13:09.990Z,3.80
2023-02-07T00:15:37.163Z,3.90
2023-02-07T00:18:04.393Z,3.80
2023-02-07T00:20:31.398Z,3.80
2023-02-07T00:22:58.282Z,3.70
2023-02-07T00:25:25.152Z,3.60
2023-02-07T00:27:52.303Z,3.70
2023-02-07T00:30:19.347Z,3.70
2023-02-07T00:32:46.207Z,3.70
2023-02-07T00:35:13.147Z,3.70
2023-02-07T00:37:40.056Z,3.60
2023-02-07T00:40:07.313Z,3.70
2023-02-07T00:42:34.257Z,3.50
2023-02-07T00:45:01.016Z,3.40
2023-02-07T00:47:27.848Z,3.50
2023-02-07T00:49:54.831Z,3.50
2023-02-07T00:52:21.668Z,3.50
2023-02-07T00:54:48.600Z,3.40
2023-02-07T00:57:15.738Z,3.40
2023-02-07T00:59:42.666Z,3.30
2023-02-07T01:02:09.527Z,3.30
2023-02-07T01:04:36.565Z,3.30
2023-02-07T01:07:03.547Z,3.30
2023-02-07T01:09:30.434Z,3.30
2023-02-07T01:11:57.396Z,3.20
2023-02-07T01:14:24.225Z,3.10
2023-02-07T01:16:51.189Z,3.10
2023-02-07T01:19:18.848Z,3.10
2023-02-07T01:21:45.721Z,3.00
2023-02-07T01:24:12.575Z,3.00
2023-02-07T01:26:40.095Z,3.10
2023-02-07T01:29:07.848Z,3.10
2023-02-07T01:31:35.272Z,3.00
2023-02-07T01:34:05.269Z,3.00
2023-02-07T01:36:32.528Z,3.00
2023-02-07T01:38:59.433Z,3.10
2023-02-07T01:41:27.903Z,3.10
2023-02-07T01:44:02.073Z,3.10
2023-02-07T01:46:30.839Z,3.10
2023-02-07T01:49:01.684Z,3.10
2023-02-07T01:51:31.247Z,3.10
2023-02-07T01:54:02.904Z,3.10
2023-02-07T01:56:32.172Z,3.10
2023-02-07T01:59:01.206Z,3.00
2023-02-07T02:01:28.391Z,2.90
2023-02-07T02:03:56.770Z,2.90
2023-02-07T02:06:27.598Z,2.90
2023-02-07T02:08:59.676Z,3.00
2023-02-07T02:11:44.819Z,2.90
2023-02-07T02:14:43.436Z,2.90
2023-02-07T02:17:28.362Z,2.80
2023-02-07T02:20:33.318Z,2.80
2023-02-07T02:23:06.489Z,2.70
2023-02-07T02:25:47.357Z,2.70
2023-02-07T02:28:25.055Z,2.70
2023-02-07T02:31:29.420Z,2.70
2023-02-07T02:34:04.305Z,2.70
2023-02-07T02:37:00.062Z,2.60
2023-02-07T02:39:55.326Z,2.60
2023-02-07T02:42:48.015Z,2.60
2023-02-07T02:45:25.890Z,2.60
2023-02-07T02:47:54.270Z,2.60
2023-02-07T02:50:27.562Z,2.50
2023-02-07T02:52:54.897Z,2.50
2023-02-07T02:55:53.403Z,2.60
2023-02-07T02:58:41.983Z,2.60
2023-02-07T03:01:27.326Z,2.60
2023-02-07T03:04:27.361Z,2.60
2023-02-07T03:07:23.503Z,2.60
2023-02-07T03:10:08.051Z,2.60
2023-02-07T03:12:44.027Z,2.60
2023-02-07T03:15:16.628Z,2.50
2023-02-07T03:17:52.469Z,2.50
2023-02-07T03:20:41.599Z,2.50
2023-02-07T03:23:11.102Z,2.40
2023-02-07T03:25:40.433Z,2.40
2023-02-07T03:28:10.354Z,2.40
2023-02-07T03:30:38.831Z,2.40
2023-02-07T03:33:11.964Z,2.40
2023-02-07T03:35:50.991Z,2.40
2023-02-07T03:38:18.096Z,2.30
2023-02-07T03:40:49.143Z,2.30
2023-02-07T03:43:22.455Z,2.30
2023-02-07T03:45:49.275Z,2.30
2023-02-07T03:48:16.288Z,2.30
2023-02-07T03:50:43.242Z,2.20
2023-02-07T03:53:10.081Z,2.20
2023-02-07T03:55:37.187Z,2.20
2023-02-07T03:58:04.330Z,2.10
2023-02-07T04:00:31.211Z,2.00
2023-02-07T04:02:58.132Z,2.00
2023-02-07T04:05:25.341Z,1.90
2023-02-07T04:07:52.468Z,2.00
2023-02-07T04:10:19.501Z,2.00
2023-02-07T04:12:46.426Z,1.90
2023-02-07T04:15:13.851Z,2.00
2023-02-07T04:17:40.692Z,2.00
2023-02-07T04:20:08.521Z,1.90
2023-02-07T04:22:35.633Z,1.90
2023-02-07T04:25:02.465Z,1.90
2023-02-07T04:27:29.358Z,2.00
2023-02-07T04:29:56.498Z,1.80
2023-02-07T04:32:23.414Z,1.70
2023-02-07T04:34:50.290Z,1.70
2023-02-07T04:37:17.185Z,1.70
2023-02-07T04:39:44.049Z,1.70
2023-02-07T04:42:10.929Z,1.70
2023-02-07T04:44:37.803Z,1.70
2023-02-07T04:47:04.774Z,1.60
2023-02-07T04:49:34.141Z,1.60
2023-02-07T04:52:02.643Z,1.60
2023-02-07T04:54:29.443Z,1.50
2023-02-07T04:56:56.308Z,1.50
2023-02-07T04:59:23.161Z,1.40
2023-02-07T05:01:49.914Z,1.40
2023-02-07T05:04:17.117Z,1.40
2023-02-07T05:06:44.024Z,1.30
2023-02-07T05:09:10.818Z,1.40
2023-02-07T05:11:37.775Z,1.30
2023-02-07T05:14:04.752Z,1.40
2023-02-07T05:16:31.776Z,1.30
2023-02-07T05:18:58.695Z,1.40
2023-02-07T05:21:25.676Z,1.40
2023-02-07T05:23:52.614Z,1.40
2023-02-07T05:26:19.738Z,1.40
2023-02-07T05:28:46.724Z,1.40
2023-02-07T05:31:13.723Z,1.40
2023-02-07T05:33:40.642Z,1.30
2023-02-07T05:36:08.023Z,1.20
2023-02-07T05:38:35.062Z,1.30
2023-02-07T05:41:02.021Z,1.20
2023-02-07T05:43:28.907Z,1.30
2023-02-07T05:45:55.848Z,1.20
2023-02-07T05:48:22.738Z,1.20
2023-02-07T05:50:49.569Z,1.20
2023-02-07T05:53:16.502Z,1.20
2023-02-07T05:55:43.359Z,1.10
2023-02-07T05:58:10.352Z,1.00
2023-02-07T06:00:37.211Z,0.90
2023-02-07T06:03:04.163Z,0.80
2023-02-07T06:05:33.133Z,0.80
2023-02-07T06:08:00.229Z,0.70
2023-02-07T06:10:27.313Z,0.70
2023-02-07T06:12:54.177Z,0.70
2023-02-07T06:15:20.995Z,0.60
2023-02-07T06:17:48.144Z,0.70
2023-02-07T06:20:15.300Z,0.70
2023-02-07T06:22:42.392Z,0.80
2023-02-07T06:25:12.561Z,0.60
2023-02-07T06:27:40.911Z,0.60
2023-02-07T06:30:10.005Z,0.60
2023-02-07T06:32:36.850Z,0.60
2023-02-07T06:35:05.233Z,0.80
2023-02-07T06:37:32.317Z,0.70
2023-02-07T06:39:59.292Z,0.70
2023-02-07T06:42:26.267Z,0.50
2023-02-07T06:44:53.076Z,0.50
2023-02-07T06:47:20.868Z,0.60
2023-02-07T06:49:47.853Z,0.60
2023-02-07T06:52:15.122Z,0.70
2023-02-07T06:54:42.259Z,0.60
2023-02-07T06:57:09.186Z,0.40
2023-02-07T06:59:36.241Z,0.20
2023-02-07T07:02:03.886Z,0.20
2023-02-07T07:04:31.466Z,0.20
2023-02-07T07:06:58.317Z,0.20
2023-02-07T07:09:25.232Z,0.20
2023-02-07T07:11:52.022Z,0.20
2023-02-07T07:14:18.873Z,0.30
2023-02-07T07:16:45.853Z,0.20
2023-02-07T07:19:13.014Z,0.20
2023-02-07T07:21:40.009Z,0.20
2023-02-07T07:24:07.034Z,0.10
2023-02-07T07:26:48.489Z,-0.10
2023-02-07T07:29:16.208Z,-0.10
2023-02-07T07:31:43.169Z,0.00
2023-02-07T07:34:10.143Z,0.00
2023-02-07T07:36:37.045Z,0.00
2023-02-07T07:39:04.898Z,-0.10
2023-02-07T07:41:31.812Z,-0.10
2023-02-07T07:43:58.775Z,0.10
2023-02-07T07:46:25.623Z,0.10
2023-02-07T07:48:52.954Z,0.20
2023-02-07T07:51:19.815Z,0.20
2023-02-07T07:53:46.786Z,0.40
2023-02-07T07:56:13.608Z,0.50
2023-02-07T07:58:40.499Z,0.50
2023-02-07T08:01:07.328Z,0.40
2023-02-07T08:03:34.691Z,0.10
2023-02-07T08:06:01.732Z,0.20
2023-02-07T08:08:28.527Z,0.40
2023-02-07T08:10:55.728Z,0.40
2023-02-07T08:13:23.301Z,0.40
2023-02-07T08:15:50.293Z,0.50
2023-02-07T08:18:17.210Z,0.40
2023-02-07T08:20:44.400Z,0.30
2023-02-07T08:23:11.760Z,0.10
2023-02-07T08:25:38.684Z,0.00
2023-02-07T08:28:05.780Z,0.00
2023-02-07T08:30:33.375Z,-0.10
2023-02-07T08:33:00.383Z,0.00
2023-02-07T08:35:27.644Z,-0.10
2023-02-07T08:37:55.904Z,0.00
2023-02-07T08:40:22.811Z,0.20
2023-02-07T08:42:49.676Z,0.40
2023-02-07T08:45:17.893Z,0.30
2023-02-07T08:47:45.486Z,0.30
2023-02-07T08:50:14.305Z,0.20
2023-02-07T08:52:41.465Z,0.30
2023-02-07T08:55:08.871Z,0.30
2023-02-07T08:57:35.907Z,0.20
2023-02-07T09:00:04.410Z,0.30
2023-02-07T09:02:31.294Z,0.40
2023-02-07T09:04:58.208Z,0.20
2023-02-07T09:07:25.139Z,0.20
2023-02-07T09:09:51.947Z,0.30
2023-02-07T09:12:18.890Z,0.50
2023-02-07T09:14:45.712Z,0.90
2023-02-07T09:17:12.530Z,1.10
2023-02-07T09:19:39.446Z,1.00
2023-02-07T09:22:06.318Z,1.00
2023-02-07T09:24:33.360Z,1.00
2023-02-07T09:27:01.302Z,1.20
2023-02-07T09:29:28.230Z,1.40
2023-02-07T09:31:55.383Z,1.40
2023-02-07T09:34:22.240Z,1.50
2023-02-07T09:36:50.256Z,1.70
2023-02-07T09:39:17.202Z,1.60
2023-02-07T09:42:11.368Z,1.60
2023-02-07T09:45:04.839Z,1.80
2023-02-07T09:47:34.150Z,2.00
2023-02-07T09:50:08.268Z,2.00
2023-02-07T09:52:45.188Z,2.10
2023-02-07T09:55:21.664Z,2.20
2023-02-07T09:57:55.647Z,2.40
2023-02-07T10:00:22.584Z,2.70
2023-02-07T10:02:56.329Z,2.90
2023-02-07T10:05:31.591Z,2.90
2023-02-07T10:07:58.509Z,3.00
2023-02-07T10:11:13.106Z,3.10
2023-02-07T10:13:53.860Z,3.20
2023-02-07T10:16:20.711Z,3.00
2023-02-07T10:19:09.762Z,3.50
2023-02-07T10:22:07.135Z,3.50
2023-02-07T10:24:55.119Z,3.60
2023-02-07T10:27:36.740Z,3.70
2023-02-07T10:30:12.229Z,3.70
2023-02-07T10:32:40.277Z,3.90
2023-02-07T10:35:29.372Z,3.70
2023-02-07T10:38:00.286Z,3.60
2023-02-07T10:40:34.935Z,4.00
2023-02-07T10:43:39.225Z,4.20
2023-02-07T10:46:12.255Z,4.60
2023-02-07T10:48:39.401Z,4.10
2023-02-07T10:51:41.951Z,4.10
2023-02-07T10:54:13.870Z,4.00
2023-02-07T10:56:53.612Z,4.00
2023-02-07T10:59:47.784Z,4.40
2023-02-07T11:02:32.926Z,4.40
2023-02-07T11:05:24.344Z,4.50
2023-02-07T11:08:03.824Z,4.90
2023-02-07T11:10:39.722Z,4.80
2023-02-07T11:13:14.657Z,5.20
2023-02-07T11:15:53.522Z,5.30
2023-02-07T11:18:55.453Z,5.00
2023-02-07T11:21:34.272Z,4.70
2023-02-07T11:24:06.544Z,5.00
2023-02-07T11:26:36.164Z,5.40
2023-02-07T11:29:15.798Z,5.40
2023-02-07T11:31:44.290Z,5.70
2023-02-07T11:34:25.787Z,5.90
2023-02-07T11:36:53.116Z,5.70
2023-02-07T11:39:23.149Z,5.80
2023-02-07T11:41:59.897Z,5.70
2023-02-07T11:44:29.840Z,5.60
2023-02-07T11:47:03.630Z,5.70
2023-02-07T11:49:43.229Z,6.00
2023-02-07T11:52:11.033Z,6.00
2023-02-07T11:54:40.028Z,5.80
2023-02-07T11:57:15.884Z,5.80
2023-02-07T11:59:50.512Z,6.00
2023-02-07T12:02:24.629Z,6.10
2023-02-07T12:04:54.781Z,5.90
2023-02-07T12:07:34.500Z,6.30
2023-02-07T12:10:05.943Z,6.20
2023-02-07T12:12:51.439Z,6.10
2023-02-07T12:15:31.731Z,6.40
2023-02-07T12:18:10.747Z,6.40
2023-02-07T12:21:10.731Z,6.80
2023-02-07T12:23:48.273Z,7.20
2023-02-07T12:26:32.703Z,6.40
2023-02-07T12:29:30.794Z,6.10
2023-02-07T12:31:57.833Z,6.60
2023-02-07T12:34:33.674Z,6.80
2023-02-07T12:37:14.318Z,6.40
2023-02-07T12:39:53.249Z,6.40
2023-02-07T12:42:40.809Z,6.50
2023-02-07T12:45:27.757Z,6.80
2023-02-07T12:48:06.766Z,7.20
2023-02-07T12:50:59.894Z,7.00
2023-02-07T12:54:25.444Z,7.20
2023-02-07T12:57:01.392Z,7.10
2023-02-07T13:00:12.357Z,7.10
2023-02-07T13:03:12.707Z,7.30
2023-02-07T13:06:02.744Z,7.20
2023-02-07T13:08:35.700Z,7.30
2023-02-07T13:11:08.575Z,7.20
2023-02-07T13:14:00.289Z,6.70
2023-02-07T13:17:05.495Z,7.10
2023-02-07T13:19:50.874Z,7.10
2023-02-07T13:22:39.483Z,7.50
2023-02-07T13:25:19.259Z,7.20
2023-02-07T13:27:49.151Z,7.30
2023-02-07T13:30:17.973Z,7.40
2023-02-07T13:32:46.345Z,7.30
2023-02-07T13:35:19.249Z,7.50
2023-02-07T13:38:04.267Z,7.40
2023-02-07T13:40:37.268Z,7.60
2023-02-07T13:43:10.227Z,7.10
2023-02-07T13:45:55.672Z,7.30
2023-02-07T13:48:41.341Z,7.60
2023-02-07T13:51:43.610Z,7.60
2023-02-07T13:54:31.620Z,7.90
2023-02-07T13:57:21.216Z,7.90
2023-02-07T14:00:17.297Z,7.90
2023-02-07T14:02:50.144Z,7.70
2023-02-07T14:05:30.561Z,7.70
2023-02-07T14:08:17.576Z,7.70
2023-02-07T14:10:45.829Z,7.70
2023-02-07T14:13:27.494Z,7.70
2023-02-07T14:16:01.937Z,7.70
2023-02-07T14:18:38.672Z,7.80
2023-02-07T14:21:18.560Z,7.80
2023-02-07T14:23:57.483Z,7.80
2023-02-07T14:26:49.132Z,7.40
2023-02-07T14:29:24.622Z,7.30
2023-02-07T14:32:21.589Z,7.50
2023-02-07T14:35:19.467Z,7.40
2023-02-07T14:38:00.423Z,7.60
2023-02-07T14:40:31.909Z,7.70
2023-02-07T14:43:00.623Z,7.60
2023-02-07T14:45:31.638Z,7.40
2023-02-07T14:47:58.663Z,7.30
2023-02-07T14:50:30.838Z,7.30
2023-02-07T14:53:00.639Z,7.40
2023-02-07T14:55:42.559Z,7.00
2023-02-07T14:58:25.249Z,7.20
2023-02-07T15:00:56.444Z,7.40
2023-02-07T15:03:23.416Z,7.10
2023-02-07T15:05:51.690Z,7.00
2023-02-07T15:08:20.077Z,7.10
2023-02-07T15:10:57.178Z,7.00
2023-02-07T15:13:34.839Z,7.10
2023-02-07T15:16:06.229Z,7.10
2023-02-07T15:18:37.889Z,7.00
2023-02-07T15:21:05.397Z,7.00
2023-02-07T15:23:32.614Z,7.10
2023-02-07T15:26:07.310Z,7.10
2023-02-07T15:28:34.663Z,7.10
2023-02-07T15:31:14.588Z,7.10
2023-02-07T15:33:56.565Z,7.10
2023-02-07T15:36:29.604Z,7.10
2023-02-07T15:38:57.669Z,7.10
2023-02-07T15:41:25.634Z,7.10
2023-02-07T15:44:04.164Z,7.10
2023-02-07T15:47:03.538Z,7.00
2023-02-07T15:49:33.219Z,6.90
2023-02-07T15:52:14.864Z,6.80
2023-02-07T15:54:48.552Z,6.80
2023-02-07T15:57:28.523Z,6.70
2023-02-07T16:00:00.880Z,6.70
2023-02-07T16:02:34.703Z,6.70
2023-02-07T16:05:13.196Z,6.40
2023-02-07T16:07:40.345Z,6.40
2023-02-07T16:10:40.207Z,6.40
2023-02-07T16:13:07.202Z,6.40
2023-02-07T16:15:39.743Z,6.30
2023-02-07T16:18:26.862Z,6.30
2023-02-07T16:20:53.698Z,6.20
2023-02-07T16:23:20.500Z,6.10
2023-02-07T16:25:47.353Z,6.10
2023-02-07T16:28:15.867Z,6.00
2023-02-07T16:30:42.909Z,5.90
2023-02-07T16:33:13.739Z,5.90
2023-02-07T16:35:40.545Z,5.80
2023-02-07T16:38:07.318Z,5.80
2023-02-07T16:40:35.990Z,5.80
2023-02-07T16:43:04.200Z,5.70
2023-02-07T16:45:32.693Z,5.60
2023-02-07T16:48:00.811Z,5.60
2023-02-07T16:50:29.778Z,5.60
2023-02-07T16:52:57.746Z,5.50
2023-02-07T16:55:27.410Z,5.40
2023-02-07T16:57:54.906Z,5.30
2023-02-07T17:00:24.838Z,5.40
2023-02-07T17:02:53.675Z,5.20
2023-02-07T17:05:22.542Z,5.20
2023-02-07T17:07:50.132Z,5.20
2023-02-07T17:10:26.362Z,5.20
2023-02-07T17:12:54.167Z,5.10
2023-02-07T17:15:21.864Z,5.10
2023-02-07T17:17:49.161Z,5.00
2023-02-07T17:20:24.359Z,5.10
2023-02-07T17:22:52.165Z,5.00
2023-02-07T17:25:21.243Z,4.90
2023-02-07T17:27:48.720Z,4.90
2023-02-07T17:30:24.546Z,4.80
2023-02-07T17:32:52.184Z,4.90
2023-02-07T17:35:20.709Z,4.90
2023-02-07T17:37:51.267Z,4.80
2023-02-07T17:40:30.125Z,4.80
2023-02-07T17:42:57.564Z,4.80
2023-02-07T17:45:26.404Z,4.70
2023-02-07T17:47:56.434Z,4.70
2023-02-07T17:50:29.260Z,4.70
2023-02-07T17:52:57.628Z,4.70
2023-02-07T17:55:24.969Z,4.60
2023-02-07T17:57:52.058Z,4.60
2023-02-07T18:00:26.119Z,4.60
2023-02-07T18:02:53.137Z,4.50
2023-02-07T18:05:20.812Z,4.50
2023-02-07T18:07:49.614Z,4.30
2023-02-07T18:10:22.607Z,4.20
2023-02-07T18:12:49.840Z,4.20
2023-02-07T18:15:19.162Z,4.20
2023-02-07T18:17:47.625Z,4.20
2023-02-07T18:20:22.371Z,4.20
2023-02-07T18:22:54.774Z,4.20
2023-02-07T18:25:22.039Z,4.20
2023-02-07T18:27:51.134Z,4.20
2023-02-07T18:30:20.359Z,4.20
2023-02-07T18:32:48.008Z,4.20
2023-02-07T18:35:15.136Z,4.10
2023-02-07T18:37:42.030Z,4.10
2023-02-07T18:40:10.268Z,4.10
2023-02-07T18:42:37.083Z,4.10
2023-02-07T18:45:04.191Z,4.10
2023-02-07T18:47:32.514Z,4.00
2023-02-07T18:49:59.546Z,4.00
2023-02-07T18:52:26.392Z,4.00
2023-02-07T18:54:53.208Z,3.90
2023-02-07T18:57:20.095Z,3.90
2023-02-07T18:59:46.931Z,3.90
2023-02-07T19:02:14.692Z,3.80
2023-02-07T19:04:41.720Z,3.70
2023-02-07T19:07:08.831Z,3.60
2023-02-07T19:09:35.712Z,3.50
2023-02-07T19:12:02.658Z,3.50
2023-02-07T19:14:31.085Z,3.50
2023-02-07T19:16:58.962Z,3.40
2023-02-07T19:19:28.515Z,3.40
2023-02-07T19:21:55.992Z,3.30
2023-02-07T19:24:23.707Z,3.30
2023-02-07T19:26:53.382Z,3.20
2023-02-07T19:29:28.146Z,3.20
2023-02-07T19:32:08.937Z,3.10
2023-02-07T19:34:37.937Z,3.00
2023-02-07T19:37:05.209Z,3.00
2023-02-07T19:39:32.105Z,3.00
2023-02-07T19:41:58.947Z,3.00
2023-02-07T19:44:25.776Z,2.90
2023-02-07T19:46:52.614Z,3.00
2023-02-07T19:49:19.559Z,2.90
2023-02-07T19:51:48.044Z,2.90
2023-02-07T19:54:14.960Z,2.90
2023-02-07T19:56:42.649Z,3.00
2023-02-07T19:59:10.948Z,2.90
2023-02-07T20:01:38.316Z,3.00
2023-02-07T20:04:05.992Z,3.00
2023-02-07T20:06:34.806Z,3.00
2023-02-07T20:09:05.183Z,2.90
2023-02-07T20:11:32.829Z,2.90
2023-02-07T20:14:03.460Z,2.90
2023-02-07T20:16:33.568Z,2.90
2023-02-07T20:19:01.604Z,2.80
2023-02-07T20:21:31.694Z,2.80
2023-02-07T20:23:58.853Z,2.70
2023-02-07T20:26:31.339Z,2.70
2023-02-07T20:29:00.776Z,2.80
2023-02-07T20:31:29.263Z,2.70
2023-02-07T20:33:57.564Z,2.70
2023-02-07T20:36:25.832Z,2.70
2023-02-07T20:38:52.688Z,2.70
2023-02-07T20:41:32.816Z,2.70
2023-02-07T20:44:04.798Z,2.70
2023-02-07T20:46:34.437Z,2.60
2023-02-07T20:49:09.232Z,2.60
2023-02-07T20:51:38.054Z,2.50
2023-02-07T20:54:06.474Z,2.50
2023-02-07T20:56:34.720Z,2.50
2023-02-07T20:59:01.617Z,2.50
2023-02-07T21:01:29.938Z,2.60
2023-02-07T21:03:59.460Z,2.60
2023-02-07T21:06:27.872Z,2.50
2023-02-07T21:09:01.707Z,2.50
2023-02-07T21:11:40.506Z,2.40
2023-02-07T21:14:10.998Z,2.40
2023-02-07T21:16:37.926Z,2.30
2023-02-07T21:19:05.086Z,2.30
2023-02-07T21:21:32.068Z,2.30
2023-02-07T21:23:59.366Z,2.30
2023-02-07T21:26:27.074Z,2.40
2023-02-07T21:28:59.009Z,2.40
2023-02-07T21:31:26.381Z,2.40
2023-02-07T21:33:53.374Z,2.30
2023-02-07T21:36:26.677Z,2.20
2023-02-07T21:38:55.384Z,2.20
2023-02-07T21:41:25.150Z,2.10
2023-02-07T21:43:53.775Z,2.10
2023-02-07T21:46:23.097Z,2.00
2023-02-07T21:48:52.777Z,2.10
2023-02-07T21:51:24.199Z,2.00
2023-02-07T21:53:53.050Z,2.00
2023-02-07T21:56:28.509Z,2.00
2023-02-07T21:58:57.708Z,2.00
2023-02-07T22:01:24.922Z,1.90
2023-02-07T22:03:54.239Z,1.90
2023-02-07T22:06:22.313Z,1.90
2023-02-07T22:08:58.865Z,1.90
2023-02-07T22:11:28.698Z,1.90
2023-02-07T22:13:55.750Z,1.80
2023-02-07T22:16:25.090Z,1.70
2023-02-07T22:18:53.654Z,1.70
2023-02-07T22:21:23.359Z,1.80
2023-02-07T22:23:50.787Z,1.80
2023-02-07T22:26:18.702Z,1.70
2023-02-07T22:28:46.947Z,1.80
2023-02-07T22:31:19.494Z,1.70
2023-02-07T22:33:48.187Z,1.70
2023-02-07T22:36:17.495Z,1.80
2023-02-07T22:38:44.409Z,1.80
2023-02-07T22:41:11.251Z,1.70
2023-02-07T22:43:39.943Z,1.70
2023-02-07T22:46:09.554Z,1.60
2023-02-07T22:48:36.528Z,1.70
2023-02-07T22:51:21.325Z,1.70
2023-02-07T22:53:49.474Z,1.70
2023-02-07T22:56:16.672Z,1.70
2023-02-07T22:58:43.571Z,1.60
2023-02-07T23:01:32.433Z,1.60
2023-02-07T23:03:59.499Z,1.60
2023-02-07T23:06:26.824Z,1.60
2023-02-07T23:08:54.218Z,1.70
2023-02-07T23:11:22.871Z,1.60
2023-02-07T23:13:50.814Z,1.60
2023-02-07T23:16:23.788Z,1.50
2023-02-07T23:18:53.189Z,1.50
2023-02-07T23:21:21.765Z,1.50
2023-02-07T23:23:48.896Z,1.50
2023-02-07T23:26:18.509Z,1.50
2023-02-07T23:28:45.728Z,1.40
2023-02-07T23:31:14.976Z,1.40
2023-02-07T23:33:42.521Z,1.40
2023-02-07T23:36:10.032Z,1.40
2023-02-07T23:38:36.977Z,1.30
2023-02-07T23:41:04.125Z,1.30
2023-02-07T23:43:31.024Z,1.30
2023-02-07T23:45:57.939Z,1.30
2023-02-07T23:48:25.877Z,1.30
2023-02-07T23:50:54.552Z,1.40
2023-02-07T23:53:21.926Z,1.30
2023-02-07T23:55:49.884Z,1.20
2023-02-07T23:58:17.468Z,1.20
